Salt Pond, Missouri
Current Conditions -  °F | °C
As of 8:58 AM on Monday 22 Dec 2014 (Local Time) from KSZL Reporting Station
Overcast Overcast  
Wind Chill: 37°   Ceiling: 2100
Heat Index: 43°   Visibility: 10mi
Dew Point: 38°   Wind: 10mph
Humidity: 84%   Direction: 160°SSE
Pressure: 29.61"   Gusts: NA
Location:  38.9707°N, 93.4332°W
Report Text: KSZL 221458Z 16009KT 10SM BKN021 OVC027 06/04 A2961 RMK AO2A SLP033 T00610036 57014 $
Loading
Personal Weather Stations






























Interactive Weather Map New forecast layout! Learn more

10-Day Weather Forecast

Advertisements
Track Severe Weather on mobile